Time;durP1;ratioP1;P1;durP2;ratioP2;P2;SDS_P1;SDS_P2;PMS_P1;PMS_P2;Temp;Humidity;BMP_temperature;BMP_pressure;BME280_temperature;BME280_humidity;BME280_pressure;Samples;Min_cycle;Max_cycle;Signal;HPM_P1;HPM_P2
2022/09/01 00:01:19;;;;;;;3.40;1.00;;;;;;;17.06;67.76;102233.03;5019957;28;20049;-77
2022/09/01 00:03:51;;;;;;;2.13;1.00;;;;;;;17.04;67.93;102220.78;5036948;28;20279;-78
2022/09/01 00:06:21;;;;;;;1.98;1.10;;;;;;;16.99;68.43;102213.06;5037790;28;20033;-78
2022/09/01 00:08:55;;;;;;;0.95;0.85;;;;;;;17.03;67.95;102221.72;5003303;28;20037;-78
2022/09/01 00:11:22;;;;;;;0.75;0.75;;;;;;;17.00;68.14;102213.91;5019452;28;20048;-78
2022/09/01 00:13:49;;;;;;;0.80;0.80;;;;;;;17.02;67.95;102209.41;5037303;28;20104;-78
2022/09/01 00:16:16;;;;;;;2.22;0.75;;;;;;;17.00;68.07;102213.91;5037978;28;20052;-78
2022/09/01 00:18:51;;;;;;;1.13;0.82;;;;;;;17.00;67.83;102209.47;5037030;28;20056;-78
2022/09/01 00:21:20;;;;;;;1.70;0.90;;;;;;;17.01;68.02;102211.22;5019402;28;20037;-78
2022/09/01 00:23:46;;;;;;;1.58;0.73;;;;;;;17.01;67.82;102213.84;5019429;28;20029;-78
2022/09/01 00:26:12;;;;;;;0.85;0.75;;;;;;;17.03;67.86;102216.44;5019543;28;20349;-78
2022/09/01 00:28:38;;;;;;;1.90;0.60;;;;;;;17.04;67.48;102212.84;5036876;28;20041;-78
2022/09/01 00:31:06;;;;;;;0.68;0.68;;;;;;;17.05;67.55;102214.56;5036942;28;20051;-78
2022/09/01 00:33:33;;;;;;;1.10;0.75;;;;;;;17.06;67.46;102209.22;5017620;28;20041;-78
2022/09/01 00:35:58;;;;;;;0.93;0.90;;;;;;;17.08;67.41;102210.00;5018995;28;20337;-78
2022/09/01 00:38:25;;;;;;;2.05;0.85;;;;;;;17.07;67.35;102208.25;5036730;28;20068;-78
2022/09/01 00:40:50;;;;;;;2.05;1.15;;;;;;;17.10;67.18;102203.75;5036604;28;20041;-77
2022/09/01 00:43:46;;;;;;;1.15;0.88;;;;;;;17.09;67.00;102197.63;5019330;28;20053;-78
2022/09/01 00:46:27;;;;;;;0.60;0.60;;;;;;;17.09;66.95;102205.56;5036358;28;20037;-78
2022/09/01 00:48:58;;;;;;;0.63;0.63;;;;;;;17.08;66.89;102191.47;5019414;28;20025;-78
2022/09/01 00:51:24;;;;;;;0.98;0.80;;;;;;;17.09;66.91;102200.25;5036043;28;20241;-78
2022/09/01 00:53:51;;;;;;;0.80;0.75;;;;;;;17.06;66.95;102195.97;5002687;28;20048;-78
2022/09/01 00:56:17;;;;;;;1.77;0.80;;;;;;;17.06;67.27;102184.50;5018743;28;20037;-78
2022/09/01 00:58:42;;;;;;;1.10;1.00;;;;;;;17.03;66.92;102184.69;5018318;28;20350;-78
2022/09/01 01:04:51;;;;;;;1.20;1.08;;;;;;;16.97;67.43;102190.22;5031294;28;20045;-77
2022/09/01 01:07:21;;;;;;;2.60;1.23;;;;;;;16.94;67.28;102191.25;5020379;28;20029;-78
2022/09/01 01:09:47;;;;;;;0.82;0.82;;;;;;;16.93;67.39;102191.31;5036201;28;20068;-78
2022/09/01 01:12:17;;;;;;;1.90;1.00;;;;;;;16.89;67.59;102190.59;5036504;28;20036;-78
2022/09/01 01:14:49;;;;;;;1.10;1.00;;;;;;;16.87;67.78;102192.47;5019119;28;20037;-78
2022/09/01 01:17:15;;;;;;;1.33;1.00;;;;;;;16.84;67.58;102185.50;5019255;28;20078;-78
2022/09/01 01:25:17;;;;;;;0.98;0.93;;;;;;;16.78;67.97;102195.50;5019401;28;20060;-78
2022/09/01 01:27:43;;;;;;;1.15;0.93;;;;;;;16.76;68.16;102190.25;5017923;28;20049;-78
2022/09/01 01:30:10;;;;;;;0.98;0.93;;;;;;;16.76;68.07;102186.75;5018112;28;20106;-78
2022/09/01 01:32:44;;;;;;;0.90;0.90;;;;;;;16.75;68.08;102185.88;5017956;28;20113;-78
2022/09/01 01:35:13;;;;;;;1.15;0.82;;;;;;;16.73;68.15;102190.38;5018037;28;20184;-78
2022/09/01 01:37:47;;;;;;;1.50;1.10;;;;;;;16.68;68.50;102182.69;5017674;28;20040;-78
2022/09/01 01:40:15;;;;;;;3.05;1.35;;;;;;;16.60;68.95;102184.78;5035827;28;20484;-77
2022/09/01 01:42:45;;;;;;;2.83;1.10;;;;;;;16.59;68.98;102188.38;5035617;28;20052;-78
2022/09/01 01:45:16;;;;;;;2.25;1.00;;;;;;;16.59;68.82;102184.84;5036003;28;20025;-78
2022/09/01 01:47:51;;;;;;;1.90;1.00;;;;;;;16.58;68.84;102188.44;5033710;28;20198;-78
2022/09/01 01:50:18;;;;;;;0.80;0.80;;;;;;;16.55;69.20;102186.78;5034716;28;20056;-77
2022/09/01 01:52:44;;;;;;;0.95;0.80;;;;;;;16.56;68.80;102185.88;5001503;28;20216;-78
2022/09/01 01:55:11;;;;;;;3.33;1.20;;;;;;;16.57;69.07;102184.94;5001694;28;20105;-78
2022/09/01 01:57:48;;;;;;;0.98;0.88;;;;;;;16.58;68.78;102189.31;4997263;28;20052;-78
2022/09/01 02:00:18;;;;;;;1.70;1.10;;;;;;;16.59;68.62;102190.16;5016978;28;20080;-77
2022/09/01 02:02:51;;;;;;;0.90;0.90;;;;;;;16.59;68.73;102190.16;5035234;28;20253;-78
2022/09/01 02:05:27;;;;;;;1.05;0.90;;;;;;;16.58;68.75;102181.38;5002310;28;20072;-78
2022/09/01 02:07:55;;;;;;;1.50;1.10;;;;;;;16.56;68.92;102185.03;5016867;28;20052;-78
2022/09/01 02:10:25;;;;;;;1.00;1.00;;;;;;;16.56;68.93;102180.56;5034973;28;20032;-78
2022/09/01 02:12:51;;;;;;;1.55;1.20;;;;;;;16.54;68.83;102185.09;5035312;28;20438;-78
2022/09/01 02:15:17;;;;;;;1.40;1.10;;;;;;;16.54;68.73;102176.28;5017171;28;20045;-77
2022/09/01 02:17:43;;;;;;;1.55;0.98;;;;;;;16.53;68.81;102178.06;5016746;28;20041;-78
2022/09/01 02:20:09;;;;;;;1.05;1.02;;;;;;;16.52;68.87;102173.72;5017585;28;20108;-78
2022/09/01 02:22:36;;;;;;;1.05;0.90;;;;;;;16.51;68.51;102177.28;5034943;28;20041;-78
2022/09/01 02:25:06;;;;;;;0.95;0.90;;;;;;;16.51;68.81;102177.28;5035365;28;20037;-78
2022/09/01 02:27:34;;;;;;;2.28;1.02;;;;;;;16.50;68.83;102172.94;5017208;28;20029;-78
2022/09/01 02:30:00;;;;;;;1.20;0.93;;;;;;;16.49;68.83;102171.19;5017827;28;20045;-78
2022/09/01 02:32:26;;;;;;;1.30;1.08;;;;;;;16.48;68.78;102169.47;5034524;28;20042;-78
2022/09/01 02:35:00;;;;;;;1.52;1.27;;;;;;;16.47;68.91;102173.06;5035497;28;20525;-78
2022/09/01 02:37:25;;;;;;;0.95;0.85;;;;;;;16.46;68.99;102171.31;5034199;28;20037;-78
2022/09/01 02:39:58;;;;;;;1.17;0.98;;;;;;;16.44;69.07;102166.09;5035050;28;20049;-78
2022/09/01 02:42:26;;;;;;;2.63;1.13;;;;;;;16.42;68.84;102164.47;5034319;28;20383;-78
2022/09/01 02:44:55;;;;;;;1.23;1.13;;;;;;;16.41;69.22;102166.25;5036653;28;20234;-78
2022/09/01 02:47:22;;;;;;;2.35;1.20;;;;;;;16.41;69.01;102160.97;5017766;28;20041;-78
2022/09/01 02:49:49;;;;;;;1.70;1.20;;;;;;;16.40;68.76;102163.69;5018471;28;20032;-78
2022/09/01 02:52:16;;;;;;;1.00;0.80;;;;;;;16.40;69.18;102166.31;5036001;28;20106;-78
2022/09/01 02:54:44;;;;;;;1.27;0.80;;;;;;;16.39;68.88;102154.00;5017920;28;20033;-78
2022/09/01 02:57:11;;;;;;;3.50;1.20;;;;;;;16.39;68.97;102162.81;5018309;28;20332;-78
2022/09/01 02:59:37;;;;;;;2.85;1.10;;;;;;;16.37;68.75;102155.88;5035336;28;20307;-78
2022/09/01 03:02:03;;;;;;;1.10;1.00;;;;;;;16.37;68.78;102164.69;5001212;28;20034;-78
2022/09/01 03:04:32;;;;;;;3.25;1.25;;;;;;;16.38;68.58;102160.25;5001642;28;20056;-78
2022/09/01 03:06:58;;;;;;;1.90;0.80;;;;;;;16.36;68.92;102154.16;5035346;28;20221;-78
2022/09/01 03:09:23;;;;;;;4.47;1.23;;;;;;;16.33;69.16;102155.16;5034531;28;20060;-78
2022/09/01 03:11:51;;;;;;;1.65;0.80;;;;;;;16.31;68.90;102149.06;5017835;28;20255;-78
2022/09/01 03:14:17;;;;;;;1.17;0.98;;;;;;;16.30;69.19;102148.22;5017852;28;20400;-78
2022/09/01 03:16:43;;;;;;;1.00;1.00;;;;;;;16.29;69.02;102148.28;5017441;28;20078;-78
2022/09/01 03:19:10;;;;;;;0.90;0.90;;;;;;;16.27;69.21;102148.34;5016823;28;20041;-78
2022/09/01 03:21:39;;;;;;;1.27;1.17;;;;;;;16.26;69.27;102148.41;5018001;28;20026;-78
2022/09/01 03:24:07;;;;;;;1.30;1.20;;;;;;;16.24;69.18;102152.91;5035244;28;20041;-78
2022/09/01 03:26:35;;;;;;;1.20;1.10;;;;;;;16.21;69.30;102151.28;5035754;28;20037;-78
2022/09/01 03:29:01;;;;;;;0.90;0.90;;;;;;;16.21;69.35;102148.63;5034945;28;20045;-78
2022/09/01 03:31:28;;;;;;;1.90;0.90;;;;;;;16.17;69.25;102143.53;5017669;28;20052;-78
2022/09/01 03:33:55;;;;;;;1.20;1.10;;;;;;;16.15;69.59;102130.38;5035589;28;20346;-78
2022/09/01 03:36:22;;;;;;;2.92;1.55;;;;;;;16.10;69.81;102135.88;5035662;28;20025;-78
2022/09/01 03:38:49;;;;;;;3.03;1.42;;;;;;;16.11;69.60;102139.38;5035478;28;20140;-78
2022/09/01 03:41:16;;;;;;;4.85;1.38;;;;;;;16.07;69.50;102136.00;5035290;28;20122;-78
2022/09/01 03:43:44;;;;;;;1.45;1.13;;;;;;;16.05;69.78;102126.44;5034460;28;20375;-78
2022/09/01 03:46:14;;;;;;;2.10;1.30;;;;;;;16.00;70.30;102131.91;5035849;28;20356;-78
2022/09/01 03:48:41;;;;;;;3.88;1.40;;;;;;;15.99;70.05;102127.56;5034744;28;20360;-78
2022/09/01 03:51:08;;;;;;;2.05;1.15;;;;;;;15.99;69.92;102131.97;5017763;28;20211;-78
2022/09/01 03:53:36;;;;;;;2.95;1.60;;;;;;;15.94;70.28;102132.19;5016868;28;20434;-78
2022/09/01 03:56:03;;;;;;;2.28;1.52;;;;;;;15.88;70.28;102135.06;5014056;28;20264;-78
2022/09/01 03:58:29;;;;;;;2.25;1.35;;;;;;;15.86;70.49;102131.63;5023060;28;20079;-78
2022/09/01 04:00:57;;;;;;;1.35;1.23;;;;;;;15.81;70.38;102131.84;5001182;28;20053;-78
2022/09/01 04:03:25;;;;;;;1.75;1.65;;;;;;;15.76;70.94;102140.88;5034388;28;20041;-78
2022/09/01 04:05:52;;;;;;;2.92;1.70;;;;;;;15.69;70.90;102130.53;5017850;28;20265;-78
2022/09/01 04:08:19;;;;;;;3.35;1.52;;;;;;;15.71;70.92;102128.69;5034773;28;20025;-78
2022/09/01 04:10:49;;;;;;;1.38;1.15;;;;;;;15.71;70.92;102119.91;5035148;28;20041;-78
2022/09/01 04:13:21;;;;;;;4.00;1.65;;;;;;;15.71;70.98;102123.41;5035317;28;20097;-78
2022/09/01 04:15:47;;;;;;;1.27;1.10;;;;;;;15.73;70.96;102125.97;5017065;28;20029;-78
2022/09/01 04:18:20;;;;;;;1.23;1.10;;;;;;;15.74;70.79;102122.47;5034933;28;20275;-78
2022/09/01 04:20:51;;;;;;;1.55;1.42;;;;;;;15.71;70.67;102123.41;5035361;28;20041;-79
2022/09/01 04:23:25;;;;;;;1.13;1.02;;;;;;;15.72;70.41;102129.56;5020624;28;20041;-78
2022/09/01 04:25:54;;;;;;;1.30;1.17;;;;;;;15.72;70.53;102129.56;5038922;28;20155;-78
2022/09/01 04:28:23;;;;;;;1.20;1.10;;;;;;;15.72;70.25;102129.56;5020769;28;20253;-78
2022/09/01 04:30:57;;;;;;;1.25;1.15;;;;;;;15.72;70.43;102134.84;5038643;28;20063;-78
2022/09/01 04:33:35;;;;;;;1.88;1.25;;;;;;;15.72;70.45;102135.69;5038061;28;20260;-78
2022/09/01 04:36:02;;;;;;;1.67;1.23;;;;;;;15.68;70.40;102136.75;5038809;28;20197;-78
2022/09/01 04:38:28;;;;;;;1.40;1.15;;;;;;;15.67;70.69;102131.53;5004379;28;20029;-78
2022/09/01 04:40:56;;;;;;;1.52;1.10;;;;;;;15.67;70.42;102137.66;5021050;28;20072;-78
2022/09/01 04:43:22;;;;;;;2.20;1.00;;;;;;;15.66;70.11;102135.97;5038317;28;20051;-78
2022/09/01 04:45:49;;;;;;;3.17;1.38;;;;;;;15.61;70.71;102131.75;5020407;28;20033;-78
2022/09/01 04:48:15;;;;;;;1.38;1.27;;;;;;;15.58;70.51;102126.63;5004363;28;20056;-78
2022/09/01 04:50:41;;;;;;;2.00;1.13;;;;;;;15.55;70.57;102128.47;5035736;28;20041;-78
2022/09/01 04:53:06;;;;;;;1.98;1.42;;;;;;;15.55;70.66;102128.47;4985770;28;20061;-78
2022/09/01 04:55:31;;;;;;;2.28;1.30;;;;;;;15.57;70.75;102130.19;5035884;28;20044;-78
2022/09/01 04:58:03;;;;;;;1.20;1.10;;;;;;;15.58;70.44;102129.25;5016832;28;20250;-78
2022/09/01 05:00:31;;;;;;;3.50;1.15;;;;;;;15.58;70.42;102132.75;5014674;28;20045;-78
2022/09/01 05:03:04;;;;;;;3.23;1.23;;;;;;;15.58;70.59;102134.53;5015323;28;20034;-78
2022/09/01 05:05:41;;;;;;;2.55;1.63;;;;;;;15.57;70.32;102131.03;5016269;28;20300;-78
2022/09/01 05:08:13;;;;;;;1.77;1.50;;;;;;;15.57;70.47;102130.19;5014631;28;20171;-78
2022/09/01 05:10:45;;;;;;;2.53;1.65;;;;;;;15.53;70.56;102132.97;5015680;28;20029;-78
2022/09/01 05:13:13;;;;;;;1.83;1.38;;;;;;;15.52;70.49;102131.22;5014815;28;20250;-78
2022/09/01 05:15:45;;;;;;;3.00;1.63;;;;;;;15.53;70.45;102126.81;5015631;28;20045;-78
2022/09/01 05:18:23;;;;;;;1.55;1.45;;;;;;;15.51;70.37;102131.28;5025093;28;20053;-78
2022/09/01 05:20:51;;;;;;;1.30;1.20;;;;;;;15.50;70.53;102121.66;5033540;28;20041;-78
2022/09/01 05:23:18;;;;;;;1.47;1.30;;;;;;;15.49;70.49;102123.44;5014411;28;20239;-79
2022/09/01 05:25:50;;;;;;;1.65;1.40;;;;;;;15.49;70.31;102128.72;5013774;28;20356;-78
2022/09/01 05:28:17;;;;;;;1.48;1.38;;;;;;;15.45;70.71;102127.13;5017073;28;20299;-78
2022/09/01 05:30:45;;;;;;;1.50;1.40;;;;;;;15.44;70.48;102132.47;5014634;28;20084;-78
2022/09/01 05:33:15;;;;;;;4.40;1.70;;;;;;;15.40;70.75;102125.59;5003888;28;20054;-78
2022/09/01 05:35:48;;;;;;;2.08;1.60;;;;;;;15.39;70.55;102132.66;5008508;28;20200;-78
2022/09/01 05:38:15;;;;;;;3.05;2.15;;;;;;;15.37;70.88;102137.13;5006352;28;20022;-78
2022/09/01 05:40:42;;;;;;;2.65;1.73;;;;;;;15.35;70.65;102131.03;5005116;28;20049;-78
2022/09/01 05:43:13;;;;;;;2.70;1.88;;;;;;;15.35;70.84;102131.03;5015360;28;20026;-78
2022/09/01 05:45:42;;;;;;;1.40;1.30;;;;;;;15.34;70.84;102131.97;5008630;28;20227;-78
2022/09/01 05:48:16;;;;;;;1.60;1.50;;;;;;;15.33;70.67;102132.88;5007043;28;20045;-78
2022/09/01 05:50:42;;;;;;;2.17;1.67;;;;;;;15.31;70.73;102134.75;5012355;28;20305;-78
2022/09/01 05:53:17;;;;;;;2.25;1.65;;;;;;;15.31;71.02;102137.38;5013110;28;20105;-78
2022/09/01 05:55:47;;;;;;;4.05;2.00;;;;;;;15.28;71.07;102129.56;5002629;28;20053;-78
2022/09/01 05:58:16;;;;;;;1.70;1.60;;;;;;;15.29;71.32;102132.16;5009515;28;20198;-78
2022/09/01 06:00:48;;;;;;;4.57;1.88;;;;;;;15.28;71.05;102132.22;5022745;28;20067;-78
2022/09/01 06:03:15;;;;;;;2.22;2.03;;;;;;;15.24;71.18;102135.91;5030588;28;20045;-78
2022/09/01 06:05:41;;;;;;;7.40;1.88;;;;;;;15.18;71.57;102133.50;5033184;28;20057;-78
2022/09/01 06:08:09;;;;;;;3.25;2.17;;;;;;;15.15;71.50;102132.72;5015688;28;20382;-78
2022/09/01 06:10:39;;;;;;;1.63;1.52;;;;;;;15.16;71.80;102134.41;5033081;28;20041;-78
2022/09/01 06:13:08;;;;;;;5.28;2.20;;;;;;;15.20;71.81;102136.94;5016437;28;20042;-78
2022/09/01 06:15:37;;;;;;;7.03;2.15;;;;;;;15.18;71.46;102138.78;5033875;28;20080;-78
2022/09/01 06:18:06;;;;;;;2.42;2.15;;;;;;;15.17;71.88;102140.53;5016561;28;20221;-78
2022/09/01 06:20:32;;;;;;;;;;;;;;;15.13;71.82;102133.69;5016219;28;20038;-79
2022/09/01 06:22:57;;;;;;;7.60;2.28;;;;;;;15.08;71.84;102136.50;5000163;28;19987;-78
2022/09/01 06:25:22;;;;;;;2.28;2.00;;;;;;;15.05;72.09;102134.00;5033649;28;20055;-79
2022/09/01 06:27:48;;;;;;;5.32;2.53;;;;;;;15.06;72.15;102130.44;5016515;28;20040;-78
2022/09/01 06:30:19;;;;;;;2.67;1.90;;;;;;;15.06;71.83;102138.34;4996659;28;20360;-78
2022/09/01 06:32:48;;;;;;;4.93;2.08;;;;;;;15.01;71.64;102140.31;5011169;28;20108;-79
2022/09/01 06:35:17;;;;;;;3.13;2.00;;;;;;;15.00;71.64;102135.94;5031035;28;20241;-78
2022/09/01 06:37:44;;;;;;;3.28;1.90;;;;;;;15.03;71.54;102137.63;5033281;28;20279;-78
2022/09/01 06:40:21;;;;;;;8.63;2.25;;;;;;;15.02;71.71;102138.53;5015677;28;20255;-79
2022/09/01 06:42:49;;;;;;;5.05;2.08;;;;;;;15.03;71.59;102141.09;5015399;28;20033;-79
2022/09/01 06:45:16;;;;;;;;;;;;;;;15.05;71.63;102138.41;5033594;28;20250;-78
2022/09/01 06:47:43;;;;;;;3.33;1.75;;;;;;;15.08;71.63;102139.16;5033071;28;19921;-79
2022/09/01 06:50:14;;;;;;;3.83;2.20;;;;;;;15.09;71.46;102140.00;5017545;28;20049;-78
2022/09/01 06:52:42;;;;;;;4.88;2.30;;;;;;;15.09;71.40;102148.78;5032726;28;20056;-79
2022/09/01 06:55:10;;;;;;;3.22;2.33;;;;;;;15.10;70.88;102142.59;5014140;28;20025;-79
2022/09/01 06:57:37;;;;;;;2.80;1.90;;;;;;;15.12;71.12;102143.38;5013778;28;20410;-79
2022/09/01 07:00:16;;;;;;;3.53;2.30;;;;;;;15.13;70.58;102145.13;5032702;28;20077;-79
2022/09/01 07:02:44;;;;;;;3.28;2.10;;;;;;;15.15;70.88;102155.59;5031617;28;20029;-79
2022/09/01 07:05:10;;;;;;;2.35;2.08;;;;;;;15.18;70.86;102152.84;5015378;28;20087;-79
2022/09/01 07:07:36;;;;;;;4.07;1.90;;;;;;;15.22;71.03;102148.31;5014951;28;20324;-79
2022/09/01 07:10:03;;;;;;;3.17;1.90;;;;;;;15.27;70.85;102155.13;5015784;28;20117;-79
2022/09/01 07:12:28;;;;;;;3.10;2.05;;;;;;;15.31;70.38;102150.56;5028718;28;20644;-79
2022/09/01 07:14:56;;;;;;;2.20;2.00;;;;;;;15.33;69.74;102152.25;5011415;28;20087;-79
2022/09/01 07:17:23;;;;;;;5.85;2.08;;;;;;;15.36;69.28;102154.75;5015699;28;20052;-79
2022/09/01 07:19:48;;;;;;;3.45;2.20;;;;;;;15.41;69.31;102149.28;5032440;28;20041;-79
2022/09/01 07:22:14;;;;;;;1.60;1.50;;;;;;;15.46;69.09;102157.91;5013843;28;20351;-79
2022/09/01 07:24:39;;;;;;;2.63;1.70;;;;;;;15.50;69.18;102145.44;5015289;28;20308;-79
2022/09/01 07:27:05;;;;;;;4.35;2.20;;;;;;;15.55;68.77;102154.00;4997591;28;20041;-79
2022/09/01 07:29:31;;;;;;;4.32;1.70;;;;;;;15.58;69.22;102153.88;5014369;28;20108;-79
2022/09/01 07:31:58;;;;;;;2.08;1.63;;;;;;;15.63;68.75;102154.56;5032422;28;20138;-79
2022/09/01 07:34:25;;;;;;;2.78;2.35;;;;;;;15.66;68.49;102151.81;5014038;28;20124;-79
2022/09/01 07:36:55;;;;;;;3.80;1.90;;;;;;;15.70;68.25;102158.66;5014484;28;20053;-79
2022/09/01 07:39:20;;;;;;;16.05;2.97;;;;;;;15.73;68.22;102157.66;5023447;28;20387;-79
2022/09/01 07:41:46;;;;;;;1.95;1.70;;;;;;;15.76;68.25;102149.66;5008254;28;20260;-79
2022/09/01 07:44:12;;;;;;;2.63;1.90;;;;;;;15.83;68.24;102151.13;5013399;28;20084;-79
2022/09/01 07:46:38;;;;;;;3.10;1.95;;;;;;;15.87;68.37;102150.06;5031555;28;20282;-79
2022/09/01 07:49:05;;;;;;;8.45;2.08;;;;;;;15.92;68.35;102150.72;5010334;28;20025;-79
2022/09/01 07:51:32;;;;;;;5.35;2.00;;;;;;;15.99;67.96;102161.91;5011860;28;20044;-79
2022/09/01 07:54:01;;;;;;;10.70;1.90;;;;;;;16.02;67.69;102160.91;5029275;28;20777;-79
2022/09/01 07:56:29;;;;;;;5.72;1.92;;;;;;;16.06;67.28;102158.09;4994920;28;20244;-79
2022/09/01 07:58:56;;;;;;;2.17;1.77;;;;;;;16.11;67.15;102155.22;5034833;28;20033;-79
2022/09/01 08:01:24;;;;;;;2.97;1.90;;;;;;;16.15;66.96;102156.81;5034406;28;20295;-79
2022/09/01 08:03:53;;;;;;;2.70;1.73;;;;;;;16.19;67.21;102158.41;5032553;28;20064;-79
2022/09/01 08:06:20;;;;;;;2.33;1.98;;;;;;;16.25;66.69;102165.22;5030740;28;20164;-81
2022/09/01 08:08:50;;;;;;;7.68;1.90;;;;;;;16.29;66.65;102159.72;5032842;28;20045;-81
2022/09/01 08:11:19;;;;;;;5.32;2.33;;;;;;;16.34;66.79;102158.66;5016909;28;20286;-78
2022/09/01 08:13:46;;;;;;;3.90;2.35;;;;;;;16.40;66.76;102164.53;5031910;28;20041;-80
2022/09/01 08:16:13;;;;;;;3.83;2.20;;;;;;;16.46;66.58;102166.03;5028145;28;20037;-78
2022/09/01 08:18:38;;;;;;;2.13;1.85;;;;;;;16.48;66.83;102166.81;5013911;28;20225;-80
2022/09/01 08:21:08;;;;;;;5.38;2.08;;;;;;;16.51;66.52;102162.25;5026892;28;20091;-80
2022/09/01 08:23:36;;;;;;;2.55;2.05;;;;;;;16.55;66.92;102165.63;5032984;28;20045;-80
2022/09/01 08:26:07;;;;;;;3.83;1.80;;;;;;;16.59;66.97;102159.28;5018070;28;20090;-80
2022/09/01 08:28:33;;;;;;;9.27;2.47;;;;;;;16.67;67.38;102161.59;5034272;28;20241;-80
2022/09/01 08:30:59;;;;;;;6.55;2.00;;;;;;;16.73;67.03;102160.44;5034983;28;20039;-80
2022/09/01 08:33:25;;;;;;;2.90;2.25;;;;;;;16.78;66.78;102156.66;5016449;28;20044;-80
2022/09/01 08:35:51;;;;;;;3.65;2.00;;;;;;;16.85;67.11;102158.13;5037789;28;20043;-79
2022/09/01 08:38:17;;;;;;;2.22;1.80;;;;;;;16.92;66.57;102161.34;5034400;28;20243;-80
2022/09/01 08:40:50;;;;;;;5.60;2.28;;;;;;;16.97;66.75;102158.47;5033975;28;20101;-80
2022/09/01 08:44:14;;;;;;;3.90;2.20;;;;;;;17.07;66.03;102157.97;5030528;28;20037;-80
2022/09/01 08:46:41;;;;;;;2.22;1.90;;;;;;;17.16;65.82;102154.03;4972720;28;20265;-80
2022/09/01 08:49:14;;;;;;;3.47;1.80;;;;;;;17.25;65.60;102148.31;4958635;28;20379;-80
2022/09/01 08:51:48;;;;;;;1.98;1.77;;;;;;;17.32;64.77;102156.81;4998893;28;20084;-80
2022/09/01 08:54:27;;;;;;;6.30;2.00;;;;;;;17.40;64.97;102154.66;5016075;28;20343;-80
2022/09/01 08:56:57;;;;;;;3.70;1.80;;;;;;;17.51;64.29;102155.91;5018215;28;20021;-80
2022/09/01 08:59:22;;;;;;;3.30;1.75;;;;;;;17.61;63.68;102158.03;5033767;28;20080;-80
2022/09/01 09:02:07;;;;;;;8.07;1.98;;;;;;;17.70;64.09;102148.78;5015612;28;20029;-80
2022/09/01 09:04:48;;;;;;;7.22;2.20;;;;;;;17.81;63.22;102149.09;5024864;28;20052;-80
2022/09/01 09:07:40;;;;;;;2.38;1.65;;;;;;;17.90;62.88;102146.94;5026610;28;20244;-80
2022/09/01 09:10:14;;;;;;;3.90;1.90;;;;;;;17.96;62.60;102147.50;5032616;28;20064;-80
2022/09/01 09:13:01;;;;;;;2.17;1.80;;;;;;;18.04;62.43;102141.78;5029578;28;20021;-80
2022/09/01 09:15:30;;;;;;;4.70;1.83;;;;;;;18.11;62.39;102140.53;5027580;28;20552;-80
2022/09/01 09:18:06;;;;;;;2.03;1.80;;;;;;;18.20;61.92;102134.75;5024885;28;20076;-80
2022/09/01 09:20:31;;;;;;;4.07;1.88;;;;;;;18.31;62.05;102139.50;5034674;28;20092;-80
2022/09/01 09:23:06;;;;;;;11.60;1.65;;;;;;;18.40;61.09;102138.16;5018004;28;20068;-80
2022/09/01 09:25:31;;;;;;;7.80;1.80;;;;;;;18.49;60.87;102131.50;5035042;28;20033;-80
2022/09/01 09:27:57;;;;;;;7.85;1.90;;;;;;;18.57;60.92;102139.91;5001262;28;20112;-80
2022/09/01 09:30:26;;;;;;;2.90;1.58;;;;;;;18.67;60.11;102129.66;5035081;28;20041;-80
2022/09/01 09:33:02;;;;;;;1.95;1.75;;;;;;;18.78;59.70;102132.59;5035002;28;20029;-80
2022/09/01 09:35:43;;;;;;;2.35;2.00;;;;;;;18.83;60.01;102127.03;5017093;28;20259;-80
2022/09/01 09:38:18;;;;;;;8.07;2.40;;;;;;;18.87;59.95;102128.59;5017647;28;20025;-80
2022/09/01 09:41:04;;;;;;;13.68;2.40;;;;;;;19.01;59.51;102122.50;5033920;28;20378;-80
2022/09/01 09:43:34;;;;;;;4.47;1.80;;;;;;;19.05;59.01;102126.72;5034996;28;20045;-80
2022/09/01 09:46:36;;;;;;;2.90;1.55;;;;;;;19.13;58.57;102122.66;5012679;28;20037;-80
2022/09/01 09:49:05;;;;;;;1.83;1.63;;;;;;;19.23;58.12;102119.50;5033421;28;20310;-78
2022/09/01 09:51:31;;;;;;;3.47;1.48;;;;;;;19.30;57.88;102123.50;5016145;28;20107;-80
2022/09/01 09:54:29;;;;;;;3.03;1.65;;;;;;;19.32;58.37;102111.88;5016658;28;20033;-80
2022/09/01 09:57:07;;;;;;;2.78;1.60;;;;;;;19.40;58.21;102116.75;5028862;28;20252;-80
2022/09/01 09:59:37;;;;;;;2.83;1.50;;;;;;;19.41;57.93;102110.50;5016430;28;20272;-80
2022/09/01 10:02:24;;;;;;;3.08;1.40;;;;;;;19.55;57.83;102121.19;5016806;28;20382;-80
2022/09/01 10:04:51;;;;;;;3.42;2.10;;;;;;;19.62;57.07;102126.97;5014032;28;20045;-80
2022/09/01 10:07:36;;;;;;;3.90;1.58;;;;;;;19.65;57.28;102115.31;5033757;28;20353;-80
2022/09/01 10:10:37;;;;;;;5.97;1.52;;;;;;;19.65;57.83;102116.16;5026768;28;20372;-80
2022/09/01 10:13:04;;;;;;;8.02;1.40;;;;;;;19.74;57.12;102113.00;5033813;28;20282;-80
2022/09/01 10:15:32;;;;;;;2.45;1.20;;;;;;;19.85;55.98;102115.03;5033880;28;20041;-79
2022/09/01 10:18:05;;;;;;;6.85;1.23;;;;;;;19.98;53.79;102114.28;5034461;28;20119;-80
2022/09/01 10:20:31;;;;;;;8.30;1.23;;;;;;;20.02;53.11;102115.81;5014456;28;20028;-80
2022/09/01 10:22:57;;;;;;;1.52;0.88;;;;;;;20.07;52.93;102111.06;5005988;28;20109;-80
2022/09/01 10:25:27;;;;;;;4.00;1.50;;;;;;;20.09;53.06;102107.34;5015100;28;20065;-80
2022/09/01 10:27:58;;;;;;;2.28;1.25;;;;;;;20.19;53.35;102104.13;5016032;28;20342;-80
2022/09/01 10:30:24;;;;;;;4.97;1.85;;;;;;;20.20;52.94;102109.38;5014521;28;20082;-80
2022/09/01 10:32:59;;;;;;;6.25;1.27;;;;;;;20.19;53.49;102096.16;5013430;28;20060;-80
2022/09/01 10:35:29;;;;;;;1.95;1.20;;;;;;;20.25;53.67;102101.97;5033956;28;20376;-80
2022/09/01 10:37:57;;;;;;;1.10;1.00;;;;;;;20.38;52.53;102094.06;5033922;28;20067;-80
2022/09/01 10:40:32;;;;;;;3.60;1.05;;;;;;;20.35;52.74;102091.59;5013174;28;20048;-80
2022/09/01 10:43:40;;;;;;;1.52;0.80;;;;;;;20.38;52.94;102094.06;5027359;28;20043;-80
2022/09/01 10:46:20;;;;;;;;;;;;;;;20.36;53.12;102089.81;4956871;28;20070;-80
2022/09/01 10:48:49;;;;;;;1.63;0.70;;;;;;;20.36;53.67;102092.47;5008795;28;20132;-80
2022/09/01 10:51:14;;;;;;;4.13;1.23;;;;;;;20.44;52.19;102093.69;5031008;28;20060;-80
2022/09/01 10:53:40;;;;;;;7.10;1.10;;;;;;;20.51;52.13;102087.03;5032643;28;20029;-80
2022/09/01 10:56:24;;;;;;;0.90;0.80;;;;;;;20.62;51.65;102089.03;5015853;28;20037;-80
2022/09/01 10:59:04;;;;;;;3.25;1.08;;;;;;;20.72;51.36;102084.00;5033627;28;20052;-80
2022/09/01 11:01:42;;;;;;;2.38;1.00;;;;;;;20.70;52.28;102088.53;5014355;28;20042;-80
2022/09/01 11:04:13;;;;;;;5.40;1.52;;;;;;;20.70;52.43;102083.22;5015783;28;20083;-80
2022/09/01 11:06:54;;;;;;;1.58;0.90;;;;;;;20.74;51.77;102087.41;5033144;28;20026;-80
2022/09/01 11:09:39;;;;;;;1.00;0.88;;;;;;;20.84;50.21;102083.19;5012666;28;20037;-80
2022/09/01 11:12:36;;;;;;;1.95;0.88;;;;;;;20.87;50.25;102079.50;5012826;28;20577;-80
2022/09/01 11:15:05;;;;;;;4.15;0.80;;;;;;;20.90;50.80;102076.59;5032743;28;20231;-80
2022/09/01 11:17:36;;;;;;;8.60;1.10;;;;;;;20.97;49.41;102079.75;5033344;28;20037;-80
2022/09/01 11:20:23;;;;;;;1.85;1.10;;;;;;;20.95;49.64;102079.00;5014701;28;20447;-80
2022/09/01 11:23:00;;;;;;;2.67;0.90;;;;;;;20.96;50.13;102081.56;5032432;28;20028;-80
2022/09/01 11:25:37;;;;;;;1.70;1.20;;;;;;;21.05;49.27;102077.44;5023939;28;20044;-80
2022/09/01 11:28:14;;;;;;;4.82;1.20;;;;;;;21.04;49.67;102087.22;5030922;28;20045;-80
2022/09/01 11:30:51;;;;;;;2.00;1.10;;;;;;;21.05;49.30;102075.63;5024025;28;20344;-80
2022/09/01 11:33:54;;;;;;;6.38;1.25;;;;;;;21.11;49.06;102074.38;5032535;28;20231;-80
2022/09/01 11:36:33;;;;;;;1.83;0.90;;;;;;;21.11;49.54;102069.03;5033202;28;20109;-80
2022/09/01 11:39:17;;;;;;;2.53;1.10;;;;;;;21.19;47.94;102072.06;5035035;28;20317;-80
2022/09/01 11:41:54;;;;;;;1.08;0.95;;;;;;;21.26;47.38;102067.16;5035235;28;20091;-80
2022/09/01 11:44:46;;;;;;;4.90;1.00;;;;;;;21.29;47.07;102067.81;5032855;28;20025;-80
2022/09/01 11:47:26;;;;;;;3.22;0.93;;;;;;;21.34;47.28;102069.31;5015907;28;20065;-80
2022/09/01 11:49:51;;;;;;;2.35;1.10;;;;;;;21.32;47.09;102066.78;5029413;28;20044;-80
2022/09/01 11:52:19;;;;;;;3.80;1.33;;;;;;;21.28;47.12;102059.91;5037138;28;20037;-80